createdAt,value
2023-03-28T00:00:47.936Z,6.30
2023-03-28T00:03:20.970Z,6.30
2023-03-28T00:05:50.339Z,6.20
2023-03-28T00:08:19.207Z,6.20
2023-03-28T00:10:47.696Z,6.20
2023-03-28T00:13:19.977Z,6.20
2023-03-28T00:15:48.556Z,6.20
2023-03-28T00:18:16.648Z,6.20
2023-03-28T00:20:45.077Z,6.10
2023-03-28T00:23:13.168Z,6.10
2023-03-28T00:25:41.976Z,6.00
2023-03-28T00:28:10.826Z,5.70
2023-03-28T00:30:40.185Z,5.80
2023-03-28T00:33:08.920Z,5.90
2023-03-28T00:35:37.061Z,5.80
2023-03-28T00:38:05.066Z,5.60
2023-03-28T00:40:38.876Z,5.60
2023-03-28T00:43:07.046Z,5.70
2023-03-28T00:45:35.121Z,5.80
2023-03-28T00:48:14.199Z,5.80
2023-03-28T00:50:48.792Z,5.60
2023-03-28T00:53:21.045Z,5.70
2023-03-28T00:55:52.065Z,5.70
2023-03-28T00:58:24.111Z,5.70
2023-03-28T01:00:52.214Z,5.60
2023-03-28T01:03:27.683Z,5.50
2023-03-28T01:05:57.167Z,5.60
2023-03-28T01:08:27.464Z,5.60
2023-03-28T01:10:56.423Z,5.70
2023-03-28T01:13:28.045Z,5.70
2023-03-28T01:15:56.651Z,5.80
2023-03-28T01:18:26.429Z,5.80
2023-03-28T01:21:28.740Z,5.80
2023-03-28T01:24:51.724Z,5.80
2023-03-28T01:27:24.295Z,5.70
2023-03-28T01:30:36.943Z,5.60
2023-03-28T01:33:43.151Z,5.50
2023-03-28T01:36:52.806Z,5.40
2023-03-28T01:39:30.196Z,5.30
2023-03-28T01:42:06.349Z,5.30
2023-03-28T01:44:39.456Z,5.20
2023-03-28T01:47:14.024Z,5.10
2023-03-28T01:49:48.552Z,5.10
2023-03-28T01:52:23.618Z,5.30
2023-03-28T01:54:59.410Z,4.70
2023-03-28T01:57:33.710Z,4.90
2023-03-28T02:00:11.985Z,4.70
2023-03-28T02:02:44.850Z,4.50
2023-03-28T02:05:16.409Z,4.50
2023-03-28T02:07:48.261Z,4.80
2023-03-28T02:10:18.516Z,5.00
2023-03-28T02:12:49.707Z,5.10
2023-03-28T02:15:21.772Z,5.20
2023-03-28T02:17:55.117Z,5.20
2023-03-28T02:20:28.776Z,5.00
2023-03-28T02:23:02.490Z,4.50
2023-03-28T02:25:31.833Z,4.70
2023-03-28T02:28:03.586Z,4.90
2023-03-28T02:30:31.640Z,5.10
2023-03-28T02:33:01.337Z,5.10
2023-03-28T02:35:38.769Z,5.10
2023-03-28T02:38:16.116Z,5.10
2023-03-28T02:40:54.071Z,5.20
2023-03-28T02:43:52.173Z,5.10
2023-03-28T02:46:24.598Z,5.10
2023-03-28T02:49:22.347Z,5.00
2023-03-28T02:51:59.777Z,4.80
2023-03-28T02:54:37.004Z,4.90
2023-03-28T02:57:10.469Z,5.10
2023-03-28T02:59:43.717Z,5.10
2023-03-28T03:02:16.585Z,5.00
2023-03-28T03:04:45.408Z,5.00
2023-03-28T03:07:13.854Z,5.00
2023-03-28T03:09:45.885Z,5.00
2023-03-28T03:12:14.027Z,5.00
2023-03-28T03:14:42.110Z,5.10
2023-03-28T03:17:10.865Z,5.10
2023-03-28T03:19:38.873Z,5.10
2023-03-28T03:22:07.435Z,5.10
2023-03-28T03:24:36.366Z,5.00
2023-03-28T03:27:05.776Z,5.00
2023-03-28T03:29:38.422Z,5.00
2023-03-28T03:32:07.426Z,5.00
2023-03-28T03:34:36.798Z,4.90
2023-03-28T03:37:05.529Z,4.90
2023-03-28T03:39:33.522Z,4.80
2023-03-28T03:42:01.532Z,4.80
2023-03-28T03:44:31.103Z,4.80
2023-03-28T03:46:59.077Z,4.80
2023-03-28T03:49:27.039Z,4.80
2023-03-28T03:51:55.017Z,4.80
2023-03-28T03:54:23.032Z,4.70
2023-03-28T03:56:51.043Z,4.70
2023-03-28T03:59:19.130Z,4.80
2023-03-28T04:01:48.572Z,4.80
2023-03-28T04:04:16.668Z,4.70
2023-03-28T04:06:44.724Z,4.70
2023-03-28T04:09:12.665Z,4.70
2023-03-28T04:11:40.639Z,4.70
2023-03-28T04:14:08.730Z,4.60
2023-03-28T04:16:40.307Z,4.50
2023-03-28T04:19:13.881Z,4.20
2023-03-28T04:21:43.771Z,4.40
2023-03-28T04:24:15.796Z,4.50
2023-03-28T04:26:45.979Z,4.50
2023-03-28T04:29:14.031Z,4.60
2023-03-28T04:31:49.752Z,4.60
2023-03-28T04:34:20.074Z,4.70
2023-03-28T04:36:48.117Z,4.70
2023-03-28T04:39:16.189Z,4.70
2023-03-28T04:41:46.084Z,4.70
2023-03-28T04:44:14.130Z,4.70
2023-03-28T04:46:42.173Z,4.70
2023-03-28T04:49:12.809Z,4.80
2023-03-28T04:51:42.156Z,4.80
2023-03-28T04:54:10.162Z,4.70
2023-03-28T04:56:38.331Z,4.60
2023-03-28T04:59:06.590Z,4.60
2023-03-28T05:01:34.747Z,4.60
2023-03-28T05:04:02.956Z,4.60
2023-03-28T05:06:30.970Z,4.50
2023-03-28T05:09:00.962Z,4.40
2023-03-28T05:11:29.421Z,4.50
2023-03-28T05:13:57.452Z,4.50
2023-03-28T05:16:25.520Z,4.50
2023-03-28T05:18:53.531Z,4.60
2023-03-28T05:21:21.539Z,4.60
2023-03-28T05:23:51.251Z,4.60
2023-03-28T05:26:21.769Z,4.50
2023-03-28T05:28:49.894Z,4.60
2023-03-28T05:31:18.289Z,4.50
2023-03-28T05:33:46.438Z,4.30
2023-03-28T05:36:14.547Z,4.00
2023-03-28T05:38:42.545Z,3.80
2023-03-28T05:41:10.539Z,4.00
2023-03-28T05:43:39.992Z,4.10
2023-03-28T05:46:08.500Z,4.00
2023-03-28T05:48:36.891Z,4.10
2023-03-28T05:51:05.100Z,4.20
2023-03-28T05:53:33.240Z,4.30
2023-03-28T05:56:01.263Z,4.50
2023-03-28T05:58:29.584Z,4.60
2023-03-28T06:01:00.471Z,4.70
2023-03-28T06:03:31.651Z,4.70
2023-03-28T06:06:00.009Z,4.40
2023-03-28T06:08:28.174Z,4.50
2023-03-28T06:11:01.555Z,4.60
2023-03-28T06:13:29.737Z,4.70
2023-03-28T06:15:59.052Z,4.70
2023-03-28T06:18:27.144Z,4.60
2023-03-28T06:20:55.164Z,4.50
2023-03-28T06:23:23.176Z,4.60
2023-03-28T06:25:51.526Z,4.70
2023-03-28T06:28:19.490Z,4.70
2023-03-28T06:30:49.640Z,4.60
2023-03-28T06:33:18.993Z,4.60
2023-03-28T06:35:47.043Z,4.60
2023-03-28T06:38:15.151Z,4.70
2023-03-28T06:40:43.109Z,4.50
2023-03-28T06:43:11.150Z,4.50
2023-03-28T06:45:39.345Z,4.50
2023-03-28T06:48:07.654Z,4.60
2023-03-28T06:50:37.106Z,4.80
2023-03-28T06:53:05.065Z,4.80
2023-03-28T06:55:33.014Z,4.90
2023-03-28T06:58:01.407Z,5.00
2023-03-28T07:00:29.373Z,5.00
2023-03-28T07:02:57.372Z,4.90
2023-03-28T07:05:25.574Z,5.00
2023-03-28T07:07:55.151Z,5.10
2023-03-28T07:10:23.617Z,5.10
2023-03-28T07:12:51.662Z,5.10
2023-03-28T07:15:19.797Z,5.10
2023-03-28T07:17:48.330Z,5.20
2023-03-28T07:20:16.414Z,5.30
2023-03-28T07:22:44.402Z,5.30
2023-03-28T07:25:13.969Z,5.40
2023-03-28T07:27:41.945Z,5.40
2023-03-28T07:30:10.748Z,5.50
2023-03-28T07:32:50.410Z,5.60
2023-03-28T07:35:22.476Z,5.60
2023-03-28T07:37:50.449Z,5.70
2023-03-28T07:40:19.952Z,5.70
2023-03-28T07:42:50.047Z,5.80
2023-03-28T07:45:18.210Z,5.80
2023-03-28T07:47:46.412Z,5.90
2023-03-28T07:50:14.596Z,6.00
2023-03-28T07:52:45.673Z,6.10
2023-03-28T07:55:13.978Z,6.10
2023-03-28T07:57:45.440Z,6.20
2023-03-28T08:00:15.665Z,6.30
2023-03-28T08:02:44.984Z,6.40
2023-03-28T08:05:13.393Z,6.50
2023-03-28T08:07:45.936Z,6.50
2023-03-28T08:10:14.964Z,6.60
2023-03-28T08:12:44.370Z,6.70
2023-03-28T08:15:12.921Z,6.80
2023-03-28T08:17:41.172Z,6.80
2023-03-28T08:20:11.432Z,6.90
2023-03-28T08:22:39.514Z,7.00
2023-03-28T08:25:09.561Z,7.10
2023-03-28T08:27:37.577Z,7.10
2023-03-28T08:30:08.498Z,7.20
2023-03-28T08:32:36.549Z,7.20
2023-03-28T08:35:06.947Z,7.30
2023-03-28T08:37:35.151Z,7.40
2023-03-28T08:40:07.092Z,7.50
2023-03-28T08:42:55.837Z,7.60
2023-03-28T08:45:37.964Z,7.50
2023-03-28T08:48:16.372Z,7.70
2023-03-28T08:50:47.741Z,7.80
2023-03-28T08:53:20.935Z,7.80
2023-03-28T08:55:51.113Z,7.90
2023-03-28T08:58:23.586Z,7.90
2023-03-28T09:00:53.857Z,7.90
2023-03-28T09:03:23.878Z,8.00
2023-03-28T09:05:54.715Z,8.10
2023-03-28T09:08:52.093Z,8.20
2023-03-28T09:11:36.507Z,8.10
2023-03-28T09:14:23.180Z,8.20
2023-03-28T09:17:04.523Z,8.30
2023-03-28T09:20:00.500Z,8.40
2023-03-28T09:22:38.686Z,8.40
2023-03-28T09:25:20.088Z,8.50
2023-03-28T09:27:56.274Z,8.60
2023-03-28T09:30:29.903Z,8.50
2023-03-28T09:33:06.650Z,8.60
2023-03-28T09:35:36.109Z,8.60
2023-03-28T09:38:06.472Z,8.70
2023-03-28T09:40:36.020Z,8.70
2023-03-28T09:43:12.840Z,8.80
2023-03-28T09:45:51.167Z,8.80
2023-03-28T09:48:26.490Z,8.90
2023-03-28T09:50:54.687Z,9.00
2023-03-28T09:53:26.199Z,9.00
2023-03-28T09:56:04.512Z,9.10
2023-03-28T09:58:50.728Z,9.10
2023-03-28T10:01:37.432Z,9.10
2023-03-28T10:04:12.112Z,9.20
2023-03-28T10:06:41.712Z,9.20
2023-03-28T10:09:22.009Z,9.30
2023-03-28T10:11:54.375Z,9.30
2023-03-28T10:14:34.318Z,9.30
2023-03-28T10:17:04.620Z,9.30
2023-03-28T10:19:36.365Z,9.30
2023-03-28T10:22:07.811Z,9.30
2023-03-28T10:24:37.264Z,9.40
2023-03-28T10:27:18.850Z,9.50
2023-03-28T10:29:47.870Z,9.60
2023-03-28T10:32:26.047Z,9.50
2023-03-28T10:35:03.748Z,9.60
2023-03-28T10:37:33.302Z,9.60
2023-03-28T10:40:05.584Z,9.60
2023-03-28T10:42:43.970Z,9.60
2023-03-28T10:45:23.848Z,9.60
2023-03-28T10:47:55.694Z,9.70
2023-03-28T10:50:33.021Z,9.80
2023-03-28T10:53:13.712Z,9.80
2023-03-28T10:56:00.074Z,9.90
2023-03-28T10:58:36.060Z,9.90
2023-03-28T11:01:11.159Z,10.00
2023-03-28T11:04:01.245Z,10.00
2023-03-28T11:06:39.481Z,10.00
2023-03-28T11:09:18.200Z,10.10
2023-03-28T11:11:56.635Z,10.20
2023-03-28T11:14:33.503Z,10.20
2023-03-28T11:17:07.011Z,10.20
2023-03-28T11:20:02.423Z,10.10
2023-03-28T11:22:52.291Z,10.20
2023-03-28T11:25:35.312Z,10.20
2023-03-28T11:28:13.255Z,10.30
2023-03-28T11:30:43.960Z,10.30
2023-03-28T11:33:18.769Z,10.30
2023-03-28T11:35:50.338Z,10.40
2023-03-28T11:38:23.821Z,10.40
2023-03-28T11:40:56.548Z,10.30
2023-03-28T11:43:30.853Z,10.40
2023-03-28T11:46:06.792Z,10.40
2023-03-28T11:48:41.077Z,10.40
2023-03-28T11:51:13.939Z,10.50
2023-03-28T11:53:48.921Z,10.50
2023-03-28T11:56:27.937Z,10.60
2023-03-28T11:59:02.204Z,10.70
2023-03-28T12:01:34.976Z,10.70
2023-03-28T12:04:08.536Z,10.70
2023-03-28T12:06:52.417Z,10.70
2023-03-28T12:09:35.703Z,10.80
2023-03-28T12:12:10.432Z,10.80
2023-03-28T12:14:48.209Z,10.80
2023-03-28T12:17:21.207Z,10.80
2023-03-28T12:19:49.235Z,10.80
2023-03-28T12:22:23.772Z,10.90
2023-03-28T12:25:02.432Z,11.00
2023-03-28T12:27:42.601Z,11.00
2023-03-28T12:30:21.262Z,11.00
2023-03-28T12:32:56.970Z,11.00
2023-03-28T12:35:33.993Z,11.10
2023-03-28T12:38:19.132Z,11.20
2023-03-28T12:40:55.433Z,11.20
2023-03-28T12:43:29.368Z,11.20
2023-03-28T12:46:01.234Z,11.20
2023-03-28T12:48:37.915Z,11.30
2023-03-28T12:51:11.848Z,11.40
2023-03-28T12:53:46.638Z,11.40
2023-03-28T12:56:17.412Z,11.40
2023-03-28T12:58:48.837Z,11.40
2023-03-28T13:01:33.825Z,11.50
2023-03-28T13:04:11.004Z,11.60
2023-03-28T13:06:47.217Z,11.60
2023-03-28T13:09:39.103Z,11.70
2023-03-28T13:12:29.222Z,11.70
2023-03-28T13:15:02.308Z,11.70
2023-03-28T13:17:32.932Z,11.70
2023-03-28T13:20:25.785Z,11.70
2023-03-28T13:22:58.602Z,11.80
2023-03-28T13:25:29.599Z,11.80
2023-03-28T13:28:01.533Z,11.80
2023-03-28T13:30:31.385Z,11.80
2023-03-28T13:33:03.466Z,11.90
2023-03-28T13:35:49.003Z,12.00
2023-03-28T13:38:35.020Z,12.00
2023-03-28T13:41:06.588Z,12.10
2023-03-28T13:43:44.856Z,12.20
2023-03-28T13:46:16.273Z,12.20
2023-03-28T13:48:51.561Z,12.20
2023-03-28T13:51:23.869Z,12.20
2023-03-28T13:53:52.040Z,12.30
2023-03-28T13:56:26.331Z,12.40
2023-03-28T13:58:57.327Z,12.30
2023-03-28T14:01:27.514Z,12.40
2023-03-28T14:03:56.395Z,12.50
2023-03-28T14:06:26.017Z,12.50
2023-03-28T14:08:55.847Z,12.50
2023-03-28T14:11:30.422Z,12.60
2023-03-28T14:14:08.854Z,12.60
2023-03-28T14:16:38.447Z,12.60
2023-03-28T14:19:07.704Z,12.60
2023-03-28T14:21:36.449Z,12.60
2023-03-28T14:24:07.825Z,12.70
2023-03-28T14:26:37.726Z,12.80
2023-03-28T14:29:12.358Z,12.90
2023-03-28T14:31:46.126Z,12.70
2023-03-28T14:34:18.417Z,12.70
2023-03-28T14:37:01.240Z,12.80
2023-03-28T14:39:31.350Z,12.80
2023-03-28T14:42:02.884Z,12.90
2023-03-28T14:44:37.226Z,13.00
2023-03-28T14:47:05.604Z,12.90
2023-03-28T14:49:34.252Z,13.00
2023-03-28T14:52:03.619Z,13.00
2023-03-28T14:54:34.567Z,13.00
2023-03-28T14:57:04.794Z,13.00
2023-03-28T14:59:37.924Z,13.20
2023-03-28T15:02:06.941Z,13.30
2023-03-28T15:04:36.731Z,13.30
2023-03-28T15:07:05.268Z,13.30
2023-03-28T15:09:34.771Z,13.50
2023-03-28T15:12:06.717Z,13.40
2023-03-28T15:14:41.168Z,13.30
2023-03-28T15:17:14.774Z,13.10
2023-03-28T15:19:43.013Z,12.90
2023-03-28T15:22:14.032Z,12.90
2023-03-28T15:24:42.590Z,12.80
2023-03-28T15:27:23.903Z,12.60
2023-03-28T15:29:53.966Z,12.50
2023-03-28T15:32:22.342Z,12.50
2023-03-28T15:34:58.629Z,12.40
2023-03-28T15:37:27.797Z,12.30
2023-03-28T15:40:12.277Z,12.30
2023-03-28T15:42:40.860Z,12.30
2023-03-28T15:45:38.999Z,12.30
2023-03-28T15:48:07.219Z,12.30
2023-03-28T15:50:38.560Z,12.30
2023-03-28T15:53:08.823Z,12.20
2023-03-28T15:55:37.141Z,12.10
2023-03-28T15:58:06.705Z,12.10
2023-03-28T16:00:45.245Z,12.10
2023-03-28T16:03:32.671Z,12.00
2023-03-28T16:06:32.455Z,12.00
2023-03-28T16:09:15.798Z,12.00
2023-03-28T16:11:44.795Z,11.90
2023-03-28T16:14:15.386Z,11.90
2023-03-28T16:16:44.933Z,11.90
2023-03-28T16:19:19.164Z,11.90
2023-03-28T16:21:47.450Z,11.90
2023-03-28T16:24:15.903Z,11.80
2023-03-28T16:26:44.236Z,11.80
2023-03-28T16:29:12.250Z,11.80
2023-03-28T16:31:41.028Z,11.80
2023-03-28T16:34:10.500Z,11.70
2023-03-28T16:36:39.047Z,11.70
2023-03-28T16:39:08.431Z,11.70
2023-03-28T16:41:37.237Z,11.60
2023-03-28T16:44:05.571Z,11.60
2023-03-28T16:46:33.965Z,11.60
2023-03-28T16:49:01.978Z,11.50
2023-03-28T16:51:31.421Z,11.50
2023-03-28T16:53:59.400Z,11.40
2023-03-28T16:56:30.161Z,11.40
2023-03-28T16:58:58.377Z,11.30
2023-03-28T17:01:26.451Z,11.30
2023-03-28T17:03:55.729Z,11.30
2023-03-28T17:06:23.872Z,11.20
2023-03-28T17:08:54.433Z,11.20
2023-03-28T17:11:23.416Z,11.20
2023-03-28T17:13:53.927Z,11.20
2023-03-28T17:16:23.043Z,11.10
2023-03-28T17:18:51.223Z,11.00
2023-03-28T17:21:19.808Z,11.00
2023-03-28T17:23:49.470Z,11.00
2023-03-28T17:26:19.562Z,10.90
2023-03-28T17:28:47.525Z,11.00
2023-03-28T17:31:17.770Z,10.90
2023-03-28T17:33:46.524Z,10.90
2023-03-28T17:36:19.665Z,10.90
2023-03-28T17:38:49.758Z,10.90
2023-03-28T17:41:19.663Z,10.90
2023-03-28T17:43:47.685Z,11.00
2023-03-28T17:46:16.429Z,11.00
2023-03-28T17:48:44.814Z,10.90
2023-03-28T17:51:13.822Z,11.00
2023-03-28T17:53:42.975Z,10.90
2023-03-28T17:56:12.399Z,10.80
2023-03-28T17:58:42.171Z,10.70
2023-03-28T18:01:11.090Z,10.60
2023-03-28T18:03:40.080Z,10.50
2023-03-28T18:06:09.635Z,10.50
2023-03-28T18:08:38.104Z,10.50
2023-03-28T18:11:08.489Z,10.40
2023-03-28T18:13:37.476Z,10.40
2023-03-28T18:16:10.968Z,10.40
2023-03-28T18:18:40.124Z,10.30
2023-03-28T18:21:08.765Z,10.10
2023-03-28T18:23:37.452Z,9.90
2023-03-28T18:26:06.723Z,9.90
2023-03-28T18:28:36.314Z,9.90
2023-03-28T18:31:10.695Z,9.80
2023-03-28T18:33:39.639Z,9.70
2023-03-28T18:36:08.947Z,9.80
2023-03-28T18:38:38.390Z,9.70
2023-03-28T18:41:08.261Z,9.60
2023-03-28T18:43:37.233Z,9.50
2023-03-28T18:46:07.803Z,9.40
2023-03-28T18:48:37.408Z,9.50
2023-03-28T18:51:06.391Z,9.50
2023-03-28T18:53:34.965Z,9.50
2023-03-28T18:56:03.443Z,9.10
2023-03-28T18:58:31.611Z,8.90
2023-03-28T19:01:01.150Z,8.70
2023-03-28T19:03:30.756Z,8.90
2023-03-28T19:06:02.526Z,8.90
2023-03-28T19:08:31.335Z,8.90
2023-03-28T19:11:01.270Z,8.90
2023-03-28T19:13:30.775Z,8.90
2023-03-28T19:16:00.225Z,8.70
2023-03-28T19:18:29.216Z,8.40
2023-03-28T19:20:58.257Z,8.50
2023-03-28T19:23:29.337Z,8.70
2023-03-28T19:25:57.418Z,8.80
2023-03-28T19:28:25.635Z,8.80
2023-03-28T19:30:58.752Z,8.60
2023-03-28T19:33:27.784Z,8.70
2023-03-28T19:35:55.959Z,8.80
2023-03-28T19:38:24.622Z,8.90
2023-03-28T19:40:58.362Z,9.00
2023-03-28T19:43:26.662Z,9.00
2023-03-28T19:45:55.007Z,9.10
2023-03-28T19:48:23.276Z,9.10
2023-03-28T19:50:51.355Z,9.00
2023-03-28T19:53:19.463Z,8.70
2023-03-28T19:55:52.615Z,8.40
2023-03-28T19:58:22.087Z,8.20
2023-03-28T20:00:50.047Z,8.00
2023-03-28T20:03:18.401Z,8.00
2023-03-28T20:05:48.320Z,8.00
2023-03-28T20:08:18.803Z,7.90
2023-03-28T20:10:48.611Z,8.00
2023-03-28T20:13:17.323Z,8.10
2023-03-28T20:15:47.696Z,8.10
2023-03-28T20:18:19.869Z,7.70
2023-03-28T20:20:51.941Z,7.40
2023-03-28T20:23:22.457Z,7.20
2023-03-28T20:25:52.095Z,7.00
2023-03-28T20:28:20.995Z,7.20
2023-03-28T20:30:50.731Z,7.40
2023-03-28T20:33:20.498Z,7.50
2023-03-28T20:35:53.078Z,7.70
2023-03-28T20:38:21.080Z,7.80
2023-03-28T20:40:49.173Z,7.90
2023-03-28T20:43:20.224Z,7.80
2023-03-28T20:45:54.449Z,7.40
2023-03-28T20:48:35.145Z,7.00
2023-03-28T20:51:03.984Z,7.10
2023-03-28T20:53:33.186Z,7.30
2023-03-28T20:56:03.536Z,7.40
2023-03-28T20:58:32.652Z,7.60
2023-03-28T21:01:04.031Z,7.70
2023-03-28T21:03:46.802Z,7.40
2023-03-28T21:06:16.036Z,7.50
2023-03-28T21:08:47.196Z,7.40
2023-03-28T21:11:16.237Z,7.40
2023-03-28T21:13:44.526Z,7.40
2023-03-28T21:16:15.923Z,7.50
2023-03-28T21:18:44.328Z,7.50
2023-03-28T21:21:13.968Z,7.50
2023-03-28T21:23:43.027Z,7.60
2023-03-28T21:26:12.581Z,7.60
2023-03-28T21:28:40.825Z,7.60
2023-03-28T21:31:11.244Z,7.60
2023-03-28T21:33:41.499Z,7.80
2023-03-28T21:36:12.096Z,7.80
2023-03-28T21:38:40.872Z,7.80
2023-03-28T21:41:09.424Z,7.80
2023-03-28T21:43:38.608Z,7.70
2023-03-28T21:46:07.272Z,7.50
2023-03-28T21:48:36.428Z,7.40
2023-03-28T21:51:06.566Z,7.40
2023-03-28T21:53:36.526Z,7.40
2023-03-28T21:56:06.670Z,7.30
2023-03-28T21:58:35.312Z,7.10
2023-03-28T22:01:04.873Z,6.70
2023-03-28T22:03:33.393Z,6.50
2023-03-28T22:06:01.457Z,6.40
2023-03-28T22:08:30.893Z,6.50
2023-03-28T22:11:03.823Z,6.60
2023-03-28T22:13:32.294Z,6.60
2023-03-28T22:16:01.422Z,6.60
2023-03-28T22:18:30.808Z,6.50
2023-03-28T22:21:02.390Z,6.50
2023-03-28T22:23:32.434Z,6.30
2023-03-28T22:26:00.376Z,6.40
2023-03-28T22:28:28.372Z,6.70
2023-03-28T22:30:57.279Z,6.70
2023-03-28T22:33:25.772Z,6.50
2023-03-28T22:35:54.088Z,6.20
2023-03-28T22:38:22.126Z,6.10
2023-03-28T22:40:51.518Z,6.10
2023-03-28T22:43:19.585Z,6.10
2023-03-28T22:45:47.618Z,6.10
2023-03-28T22:48:15.630Z,6.30
2023-03-28T22:50:45.365Z,6.40
2023-03-28T22:53:14.345Z,6.60
2023-03-28T22:55:43.674Z,6.80
2023-03-28T22:58:13.454Z,6.80
2023-03-28T23:00:43.854Z,6.60
2023-03-28T23:03:12.254Z,6.40
2023-03-28T23:05:40.454Z,6.20
2023-03-28T23:08:08.906Z,6.00
2023-03-28T23:10:37.114Z,5.90
2023-03-28T23:13:05.596Z,5.90
2023-03-28T23:15:35.276Z,5.90
2023-03-28T23:18:03.755Z,5.80
2023-03-28T23:20:31.848Z,6.10
2023-03-28T23:22:59.859Z,6.40
2023-03-28T23:25:28.601Z,6.50
2023-03-28T23:27:56.642Z,6.70
2023-03-28T23:30:24.786Z,6.70
2023-03-28T23:32:54.200Z,6.30
2023-03-28T23:35:22.326Z,6.20
2023-03-28T23:37:53.036Z,6.10
2023-03-28T23:40:21.469Z,6.10
2023-03-28T23:42:49.445Z,6.10
2023-03-28T23:45:17.849Z,6.30
2023-03-28T23:47:46.164Z,6.40
2023-03-28T23:50:15.554Z,6.60
2023-03-28T23:52:44.041Z,6.70
2023-03-28T23:55:12.084Z,6.80
2023-03-28T23:57:40.072Z,6.90
